CheckWX is a tool to help pilots better visualize weather data.  It is not intended as a substitute for an official pre-flight weather briefing.

12:22:38 UTC

KHOT TAF
Memorial Field Airport
Hot Springs, Arkansas, USA
KHOT 221120Z 2212/2312 VRB03KT P6SM FEW250

Mar-22@
12:00 UTC

Mar-22 @ 12:00 UTC

Mar-23@
12:00 UTC

Mar-23 @ 12:00 UTC

KHOT 221120Z 2212/2312 VRB03KT P6SM FEW250
Wind
  • Variable at 3 KTS
Cloud Levels
  • Few at 25,000' AGL